createdAt,value
2022-10-29T00:02:02.565Z,100823.31
2022-10-29T00:06:09.127Z,100819.78
2022-10-29T00:10:12.360Z,100818.88
2022-10-29T00:14:15.394Z,100818.00
2022-10-29T00:18:18.983Z,100811.81
2022-10-29T00:22:23.913Z,100819.75
2022-10-29T00:26:30.762Z,100829.47
2022-10-29T00:30:33.897Z,100831.25
2022-10-29T00:34:38.919Z,100834.78
2022-10-29T00:38:44.211Z,100841.88
2022-10-29T00:42:47.454Z,100848.91
2022-10-29T00:46:53.797Z,100821.53
2022-10-29T00:50:59.035Z,100815.38
2022-10-29T00:55:08.642Z,100810.94
2022-10-29T00:59:11.784Z,100825.06
2022-10-29T01:03:14.944Z,100824.22
2022-10-29T01:07:18.161Z,100809.22
2022-10-29T01:11:33.338Z,100804.78
2022-10-29T01:15:44.223Z,100795.09
2022-10-29T01:20:09.483Z,100793.31
2022-10-29T01:24:46.877Z,100796.84
2022-10-29T01:29:08.504Z,100793.31
2022-10-29T01:33:18.328Z,100788.91
2022-10-29T01:37:25.812Z,100800.41
2022-10-29T01:41:40.693Z,100800.38
2022-10-29T01:45:49.734Z,100796.84
2022-10-29T01:50:00.214Z,100799.50
2022-10-29T01:54:08.289Z,100793.31
2022-10-29T01:58:12.748Z,100778.31
2022-10-29T02:02:26.685Z,100782.72
2022-10-29T02:06:43.763Z,100782.72
2022-10-29T02:10:54.277Z,100750.94
2022-10-29T02:15:03.868Z,100746.53
2022-10-29T02:19:07.237Z,100745.63
2022-10-29T02:23:12.168Z,100737.66
2022-10-29T02:27:15.297Z,100726.16
2022-10-29T02:31:18.330Z,100723.50
2022-10-29T02:35:21.300Z,100722.59
2022-10-29T02:39:25.883Z,100726.16
2022-10-29T02:43:28.907Z,100739.38
2022-10-29T02:47:31.912Z,100736.72
2022-10-29T02:51:35.421Z,100738.50
2022-10-29T02:55:39.852Z,100725.25
2022-10-29T02:59:43.049Z,100735.84
2022-10-29T03:03:46.070Z,100749.09
2022-10-29T03:07:49.162Z,100750.00
2022-10-29T03:11:53.544Z,100731.47
2022-10-29T03:15:56.706Z,100712.03
2022-10-29T03:19:59.944Z,100718.19
2022-10-29T03:24:02.979Z,100736.72
2022-10-29T03:28:07.659Z,100727.91
2022-10-29T03:32:10.647Z,100720.84
2022-10-29T03:36:13.857Z,100721.75
2022-10-29T03:40:19.347Z,100719.09
2022-10-29T03:44:23.810Z,100727.94
2022-10-29T03:48:27.133Z,100736.72
2022-10-29T03:52:30.295Z,100742.94
2022-10-29T03:56:33.315Z,100733.22
2022-10-29T04:00:37.882Z,100749.13
2022-10-29T04:04:40.930Z,100742.94
2022-10-29T04:08:44.299Z,100752.66
2022-10-29T04:12:47.793Z,100760.63
2022-10-29T04:16:52.194Z,100759.72
2022-10-29T04:29:41.505Z,100780.91
2022-10-29T04:33:46.229Z,100780.00
2022-10-29T04:37:49.484Z,100770.28
2022-10-29T04:41:52.537Z,100765.88
2022-10-29T04:45:56.667Z,100758.81
2022-10-29T04:50:01.114Z,100749.13
2022-10-29T04:54:04.147Z,100755.28
2022-10-29T04:58:08.110Z,100760.59
2022-10-29T05:02:11.711Z,100760.59
2022-10-29T05:06:16.080Z,100763.25
2022-10-29T05:10:19.080Z,100752.66
2022-10-29T05:14:22.117Z,100749.13
2022-10-29T05:18:25.486Z,100749.13
2022-10-29T05:22:29.893Z,100742.94
2022-10-29T05:26:33.299Z,100750.88
2022-10-29T05:30:36.677Z,100750.88
2022-10-29T05:34:44.367Z,100748.22
2022-10-29T05:38:49.121Z,100750.84
2022-10-29T05:42:52.189Z,100752.59
2022-10-29T05:46:55.318Z,100750.84
2022-10-29T05:50:58.468Z,100742.91
2022-10-29T05:55:03.061Z,100742.88
2022-10-29T05:59:06.087Z,100745.53
2022-10-29T06:03:14.026Z,100739.34
2022-10-29T06:07:17.224Z,100749.06
2022-10-29T06:11:21.824Z,100754.38
2022-10-29T06:15:24.886Z,100757.88
2022-10-29T06:19:27.903Z,100764.97
2022-10-29T06:23:31.173Z,100757.91
2022-10-29T06:27:35.708Z,100749.09
2022-10-29T06:31:38.948Z,100755.25
2022-10-29T06:35:42.088Z,100761.47
2022-10-29T06:39:45.311Z,100763.25
2022-10-29T06:43:49.825Z,100770.31
2022-10-29T06:47:53.276Z,100765.91
2022-10-29T06:51:56.484Z,100752.66
2022-10-29T06:56:00.281Z,100765.00
2022-10-29T07:00:08.433Z,100781.78
2022-10-29T07:04:11.770Z,100785.31
2022-10-29T07:08:15.085Z,100777.44
2022-10-29T07:12:18.153Z,100791.59
2022-10-29T07:16:22.550Z,100787.16
2022-10-29T07:20:26.440Z,100786.25
2022-10-29T07:24:29.649Z,100776.53
2022-10-29T07:28:32.858Z,100774.75
2022-10-29T07:32:37.222Z,100773.00
2022-10-29T07:36:40.215Z,100779.19
2022-10-29T07:40:48.596Z,100788.91
2022-10-29T07:44:51.630Z,100787.13
2022-10-29T07:48:56.000Z,100790.66
2022-10-29T07:53:00.659Z,100789.81
2022-10-29T07:57:03.859Z,100789.81
2022-10-29T08:01:07.367Z,100788.94
2022-10-29T08:05:11.861Z,100791.56
2022-10-29T08:09:15.000Z,100785.41
2022-10-29T08:13:18.031Z,100780.94
2022-10-29T08:17:21.038Z,100777.41
2022-10-29T08:21:25.511Z,100775.66
2022-10-29T08:25:29.144Z,100752.69
2022-10-29T08:29:32.270Z,100762.41
2022-10-29T08:33:35.335Z,100757.06
2022-10-29T08:37:43.279Z,100768.56
2022-10-29T08:41:57.458Z,100777.38
2022-10-29T08:46:01.457Z,100782.69
2022-10-29T08:50:13.047Z,100788.84
2022-10-29T08:54:31.130Z,100775.63
2022-10-29T08:58:38.659Z,100774.75
2022-10-29T09:02:41.804Z,100772.13
2022-10-29T09:06:52.762Z,100765.03
2022-10-29T09:11:01.311Z,100764.16
2022-10-29T09:15:26.296Z,100758.84
2022-10-29T09:19:42.860Z,100761.50
2022-10-29T09:23:58.479Z,100781.81
2022-10-29T09:28:21.243Z,100786.22
2022-10-29T09:32:28.580Z,100789.78
2022-10-29T09:36:32.631Z,100785.38
2022-10-29T09:40:38.885Z,100785.41
2022-10-29T09:44:51.189Z,100788.06
2022-10-29T09:49:04.457Z,100791.63
2022-10-29T09:53:09.216Z,100798.72
2022-10-29T09:57:20.792Z,100774.91
2022-10-29T10:01:25.443Z,100778.44
2022-10-29T10:05:30.876Z,100768.75
2022-10-29T10:09:55.410Z,100758.16
2022-10-29T10:14:00.950Z,100764.31
2022-10-29T10:18:07.196Z,100766.97
2022-10-29T10:22:19.930Z,100760.81
2022-10-29T10:26:34.979Z,100746.66
2022-10-29T10:30:38.010Z,100749.31
2022-10-29T10:34:42.685Z,100763.47
2022-10-29T10:38:48.342Z,100767.00
2022-10-29T10:42:54.404Z,100758.16
2022-10-29T10:47:00.408Z,100728.16
2022-10-29T10:51:17.487Z,100722.84
2022-10-29T10:55:25.314Z,100718.44
2022-10-29T10:59:38.842Z,100702.53
2022-10-29T11:03:47.297Z,100717.56
2022-10-29T11:07:59.164Z,100706.06
2022-10-29T11:12:07.280Z,100721.97
2022-10-29T11:16:17.762Z,100721.97
2022-10-29T11:20:25.231Z,100717.56
2022-10-29T11:24:40.126Z,100713.13
2022-10-29T11:28:48.850Z,100710.50
2022-10-29T11:33:01.237Z,100689.28
2022-10-29T11:37:13.501Z,100699.91
2022-10-29T11:41:26.397Z,100715.81
2022-10-29T11:45:41.220Z,100706.97
2022-10-29T11:50:00.786Z,100704.31
2022-10-29T11:54:08.248Z,100708.75
2022-10-29T11:58:19.520Z,100693.72
2022-10-29T12:02:33.520Z,100691.94
2022-10-29T12:06:42.810Z,100698.16
2022-10-29T12:10:51.943Z,100690.19
2022-10-29T12:15:05.191Z,100695.47
2022-10-29T12:19:19.564Z,100692.81
2022-10-29T12:23:37.592Z,100683.97
2022-10-29T12:27:47.098Z,100679.59
2022-10-29T12:31:58.178Z,100676.94
2022-10-29T12:36:09.331Z,100666.31
2022-10-29T12:40:19.388Z,100659.25
2022-10-29T12:44:31.230Z,100661.03
2022-10-29T12:48:43.098Z,100666.31
2022-10-29T12:52:51.214Z,100642.47
2022-10-29T12:56:56.606Z,100646.88
2022-10-29T13:01:00.044Z,100641.56
2022-10-29T13:05:38.598Z,100644.22
2022-10-29T13:09:44.306Z,100641.56
2022-10-29T13:13:57.514Z,100638.06
2022-10-29T13:18:07.449Z,100639.81
2022-10-29T13:26:57.789Z,100630.97
2022-10-29T13:31:34.182Z,100633.63
2022-10-29T13:35:41.847Z,100622.13
2022-10-29T13:39:44.905Z,100615.97
2022-10-29T13:43:58.869Z,100623.91
2022-10-29T13:48:06.163Z,100630.09
2022-10-29T13:52:16.029Z,100623.91
2022-10-29T13:56:26.362Z,100625.66
2022-10-29T14:00:31.733Z,100623.00
2022-10-29T14:04:40.134Z,100623.91
2022-10-29T14:08:48.990Z,100623.03
2022-10-29T14:12:56.743Z,100629.19
2022-10-29T14:17:16.608Z,100630.97
2022-10-29T14:21:24.491Z,100622.13
2022-10-29T14:25:31.892Z,100622.13
2022-10-29T14:29:34.927Z,100618.59
2022-10-29T14:33:41.479Z,100618.59
2022-10-29T14:37:46.427Z,100620.38
2022-10-29T14:41:51.104Z,100612.44
2022-10-29T14:45:55.886Z,100604.47
2022-10-29T14:50:02.865Z,100613.28
2022-10-29T14:54:08.786Z,100607.13
2022-10-29T14:58:19.041Z,100611.56
2022-10-29T15:02:39.413Z,100594.75
2022-10-29T15:06:44.206Z,100613.28
2022-10-29T15:10:49.967Z,100604.47
2022-10-29T15:14:54.647Z,100609.75
2022-10-29T15:18:58.742Z,100610.66
2022-10-29T15:23:03.830Z,100612.44
2022-10-29T15:27:07.555Z,100615.06
2022-10-29T15:31:20.569Z,100608.00
2022-10-29T15:35:24.834Z,100608.91
2022-10-29T15:39:50.410Z,100614.19
2022-10-29T15:43:55.920Z,100607.13
2022-10-29T15:48:19.555Z,100610.66
2022-10-29T15:52:28.175Z,100613.31
2022-10-29T15:56:32.858Z,100606.25
2022-10-29T16:00:36.264Z,100604.47
2022-10-29T16:04:39.408Z,100614.19
2022-10-29T16:08:45.193Z,100611.53
2022-10-29T16:12:50.516Z,100614.19
2022-10-29T16:16:53.551Z,100612.44
2022-10-29T16:21:05.429Z,100617.72
2022-10-29T16:25:16.643Z,100620.38
2022-10-29T16:29:21.205Z,100612.38
2022-10-29T16:33:24.434Z,100612.34
2022-10-29T16:37:27.499Z,100616.78
2022-10-29T16:41:31.573Z,100610.59
2022-10-29T16:45:36.597Z,100615.91
2022-10-29T16:49:39.578Z,100622.09
2022-10-29T16:53:42.875Z,100622.09
2022-10-29T16:57:46.037Z,100619.44
2022-10-29T17:01:50.469Z,100615.00
2022-10-29T17:05:53.517Z,100613.28
2022-10-29T17:09:56.592Z,100622.13
2022-10-29T17:13:59.557Z,100619.47
2022-10-29T17:18:03.969Z,100620.31
2022-10-29T17:22:10.568Z,100627.41
2022-10-29T17:26:13.631Z,100618.56
2022-10-29T17:30:16.711Z,100619.44
2022-10-29T17:34:21.069Z,100611.47
2022-10-29T17:38:24.077Z,100622.97
2022-10-29T17:42:27.504Z,100630.91
2022-10-29T17:46:30.723Z,100637.97
2022-10-29T17:50:35.285Z,100622.09
2022-10-29T17:54:38.595Z,100615.91
2022-10-29T17:58:41.591Z,100609.72
2022-10-29T18:02:44.700Z,100614.13
2022-10-29T18:06:49.218Z,100625.63
2022-10-29T18:10:53.580Z,100619.41
2022-10-29T18:14:56.601Z,100628.25
2022-10-29T18:19:03.119Z,100620.31
2022-10-29T18:23:07.748Z,100617.66
2022-10-29T18:27:10.801Z,100615.91
2022-10-29T18:31:13.811Z,100606.16
2022-10-29T18:35:17.135Z,100605.28
2022-10-29T18:39:21.526Z,100606.19
2022-10-29T18:43:26.429Z,100607.94
2022-10-29T18:47:29.437Z,100599.13
2022-10-29T18:51:33.233Z,100600.00
2022-10-29T18:55:37.864Z,100597.34
2022-10-29T18:59:40.962Z,100599.09
2022-10-29T19:03:44.842Z,100592.03
2022-10-29T19:07:47.845Z,100592.06
2022-10-29T19:11:55.409Z,100587.63
2022-10-29T19:16:02.865Z,100584.97
2022-10-29T19:20:06.941Z,100584.97
2022-10-29T19:24:14.258Z,100583.19
2022-10-29T19:28:18.637Z,100585.84
2022-10-29T19:32:21.672Z,100578.78
2022-10-29T19:36:26.072Z,100583.19
2022-10-29T19:40:30.070Z,100588.47
2022-10-29T19:44:34.621Z,100585.84
2022-10-29T19:48:37.687Z,100586.72
2022-10-29T19:52:40.681Z,100587.59
2022-10-29T19:56:43.709Z,100582.28
2022-10-29T20:00:48.179Z,100577.88
2022-10-29T20:04:51.258Z,100572.59
2022-10-29T20:08:54.307Z,100571.72
2022-10-29T20:12:58.209Z,100576.09
2022-10-29T20:17:03.113Z,100590.22
2022-10-29T20:21:07.215Z,100589.38
2022-10-29T20:25:10.588Z,100576.09
2022-10-29T20:29:15.344Z,100587.59
2022-10-29T20:33:19.818Z,100597.31
2022-10-29T20:37:22.927Z,100597.31
2022-10-29T20:41:26.305Z,100588.44
2022-10-29T20:45:29.302Z,100583.16
2022-10-29T20:49:33.731Z,100584.94
2022-10-29T20:53:36.987Z,100574.34
2022-10-29T20:57:40.109Z,100584.03
2022-10-29T21:01:51.843Z,100573.44
2022-10-29T21:06:01.757Z,100579.59
2022-10-29T21:10:05.569Z,100569.03
2022-10-29T21:14:08.688Z,100568.13
2022-10-29T21:18:11.713Z,100563.75
2022-10-29T21:22:18.869Z,100563.75
2022-10-29T21:26:24.182Z,100582.25
2022-10-29T21:30:27.284Z,100576.97
2022-10-29T21:34:30.274Z,100558.44
2022-10-29T21:38:34.859Z,100546.13
2022-10-29T21:42:38.002Z,100550.50
2022-10-29T21:46:41.035Z,100553.16
2022-10-29T21:50:44.128Z,100546.09
2022-10-29T21:54:48.530Z,100539.91
2022-10-29T21:58:52.392Z,100550.47
2022-10-29T22:02:57.978Z,100545.19
2022-10-29T22:07:04.645Z,100538.13
2022-10-29T22:11:09.443Z,100533.69
2022-10-29T22:15:13.558Z,100531.03
2022-10-29T22:19:16.554Z,100540.72
2022-10-29T22:23:19.577Z,100548.66
2022-10-29T22:27:24.033Z,100533.66
2022-10-29T22:31:27.543Z,100537.22
2022-10-29T22:35:30.618Z,100537.22
2022-10-29T22:39:33.627Z,100540.72
2022-10-29T22:43:38.862Z,100538.97
2022-10-29T22:47:41.902Z,100535.44
2022-10-29T22:51:45.174Z,100543.34
2022-10-29T22:55:52.906Z,100523.03
2022-10-29T22:59:57.314Z,100525.69
2022-10-29T23:04:01.068Z,100547.72
2022-10-29T23:08:04.313Z,100542.44
2022-10-29T23:12:07.687Z,100549.50
2022-10-29T23:16:12.069Z,100561.84
2022-10-29T23:20:15.166Z,100550.41
2022-10-29T23:24:18.281Z,100544.25
2022-10-29T23:28:21.443Z,100556.56
2022-10-29T23:32:25.855Z,100558.38
2022-10-29T23:36:29.001Z,100551.28
2022-10-29T23:40:32.121Z,100555.69
2022-10-29T23:44:35.138Z,100544.25
2022-10-29T23:48:39.556Z,100546.00
2022-10-29T23:52:42.649Z,100540.69
2022-10-29T23:56:45.656Z,100538.94
